This is the latest recevied weather packets stored in our database for station/object KG5MMT-15. If no packets are shown the sender has not sent any weather packets the latest 10 day(s).
| Time | Temp. | Humidity | Pressure | Rain* | Wind** | Luminosity | Snow |
|---|---|---|---|---|---|---|---|
| 1777871240 | 7.78° C | 59% | 0 hPa | 0 mm | - | - | - |
| 1777870940 | 7.78° C | 62% | 0 hPa | 0 mm | - | - | - |
| 1777870640 | 7.78° C | 63% | 0 hPa | 0 mm | - | - | - |
| 1777870340 | 7.78° C | 62% | 0 hPa | 0 mm | - | - | - |
| 1777870040 | 7.78° C | 60% | 0 hPa | 0 mm | - | - | - |
| 1777869740 | 7.78° C | 58% | 0 hPa | 0 mm | - | - | - |
| 1777869440 | 7.78° C | 60% | 0 hPa | 0 mm | - | - | - |
| 1777869140 | 8.33° C | 58% | 0 hPa | 0 mm | - | - | - |
| 1777868840 | 8.33° C | 56% | 0 hPa | 0 mm | - | - | - |
| 1777868540 | 8.33° C | 56% | 0 hPa | 0 mm | - | - | - |
| 1777868240 | 8.33° C | 57% | 0 hPa | 0 mm | - | - | - |
| 1777867940 | 8.33° C | 55% | 0 hPa | 0 mm | - | - | - |
| 1777867640 | 8.33° C | 58% | 0 hPa | 0 mm | - | - | - |
| 1777867340 | 8.33° C | 57% | 0 hPa | 0 mm | - | - | - |
| 1777867040 | 8.33° C | 57% | 0 hPa | 0 mm | - | - | - |
| 1777866740 | 8.89° C | 55% | 0 hPa | 0 mm | - | - | - |
| 1777865840 | 9.44° C | 53% | 0 hPa | 0 mm | - | - | - |
| 1777863741 | 10° C | 48% | 0 hPa | 0 mm | - | - | - |
| 1777863441 | 10.56° C | 48% | 0 hPa | 0 mm | - | - | - |
| 1777862841 | 11.11° C | 47% | 0 hPa | 0 mm | - | - | - |
| 1777847541 | 18.89° C | 22% | 0 hPa | 0 mm | - | - | - |
| 1777847241 | 18.89° C | 21% | 0 hPa | 0 mm | - | - | - |
| 1777846641 | 19.44° C | 21% | 0 hPa | 0 mm | - | - | - |
| 1777846341 | 19.44° C | 19% | 0 hPa | 0 mm | - | - | - |
| 1777845741 | 19.44° C | 17% | 0 hPa | 0 mm | - | - | - |
* Rain latest hour (hover to see other rain measurements)
** Current wind speed in m/s (hover to see current wind gust speed)